Time;durP1;ratioP1;P1;durP2;ratioP2;P2;SDS_P1;SDS_P2;PMS_P1;PMS_P2;Temp;Humidity;BMP_temperature;BMP_pressure;BME280_temperature;BME280_humidity;BME280_pressure;Samples;Min_cycle;Max_cycle;Signal;HPM_P1;HPM_P2
2021/08/27 00:00:03;;;;;;;1.23;0.80;;;18.70;63.20;;;;;;5058322;28;20119;-80
2021/08/27 00:02:32;;;;;;;1.17;0.70;;;18.70;63.30;;;;;;5076070;28;20465;-80
2021/08/27 00:04:57;;;;;;;0.95;0.68;;;18.70;63.30;;;;;;5041622;28;20040;-80
2021/08/27 00:07:23;;;;;;;1.35;0.65;;;18.70;63.30;;;;;;5041740;28;20043;-82
2021/08/27 00:09:49;;;;;;;1.73;1.00;;;18.70;63.40;;;;;;5058178;28;20055;-80
2021/08/27 00:12:15;;;;;;;1.33;0.55;;;18.70;63.40;;;;;;5057939;28;20114;-80
2021/08/27 00:14:41;;;;;;;0.85;0.65;;;18.60;63.40;;;;;;5074483;28;20028;-80
2021/08/27 00:17:07;;;;;;;0.88;0.75;;;18.60;63.40;;;;;;5057284;28;20045;-80
2021/08/27 00:19:32;;;;;;;0.77;0.60;;;18.60;63.40;;;;;;5074719;28;20129;-80
2021/08/27 00:21:58;;;;;;;0.98;0.70;;;18.60;63.40;;;;;;5057778;28;20017;-80
2021/08/27 00:24:24;;;;;;;1.73;0.65;;;18.60;63.50;;;;;;5076097;28;20465;-80
2021/08/27 00:26:50;;;;;;;1.20;0.70;;;18.60;63.50;;;;;;5057795;28;20039;-80
2021/08/27 00:29:16;;;;;;;0.95;0.73;;;18.60;63.60;;;;;;5074094;28;20534;-81
2021/08/27 00:31:41;;;;;;;1.67;0.90;;;18.50;63.50;;;;;;5040993;28;20051;-80
2021/08/27 00:34:07;;;;;;;1.30;0.77;;;18.50;63.60;;;;;;5057568;28;20078;-80
2021/08/27 00:36:33;;;;;;;0.70;0.60;;;18.50;63.70;;;;;;5057692;28;20059;-80
2021/08/27 00:38:59;;;;;;;1.02;0.50;;;18.50;63.60;;;;;;5057503;28;20078;-80
2021/08/27 00:41:24;;;;;;;0.60;0.60;;;18.50;63.60;;;;;;5074525;28;20486;-80
2021/08/27 00:43:50;;;;;;;1.00;0.60;;;18.50;63.60;;;;;;5057732;28;20132;-81
2021/08/27 00:46:16;;;;;;;0.70;0.70;;;18.50;63.70;;;;;;5057618;28;20516;-80
2021/08/27 00:48:43;;;;;;;1.63;0.70;;;18.40;63.70;;;;;;5057131;28;20456;-80
2021/08/27 00:51:08;;;;;;;1.77;0.90;;;18.40;63.70;;;;;;5057143;28;20052;-80
2021/08/27 00:53:34;;;;;;;1.27;0.70;;;18.40;64.40;;;;;;5073725;28;20048;-81
2021/08/27 00:56:02;;;;;;;0.70;0.70;;;18.40;63.70;;;;;;5057192;28;20503;-80
2021/08/27 00:58:28;;;;;;;1.63;0.70;;;18.40;63.70;;;;;;5057218;28;20027;-80
2021/08/27 01:00:54;;;;;;;0.75;0.65;;;18.40;63.80;;;;;;5057264;28;20021;-79
2021/08/27 01:03:20;;;;;;;0.60;0.60;;;18.40;63.80;;;;;;5057329;28;20104;-80
2021/08/27 01:05:50;;;;;;;0.88;0.70;;;18.30;63.80;;;;;;5057328;28;20032;-80
2021/08/27 01:08:30;;;;;;;1.75;0.60;;;18.30;63.80;;;;;;5073296;28;20071;-79
2021/08/27 01:11:04;;;;;;;0.60;0.60;;;18.30;63.90;;;;;;5057280;28;20039;-80
2021/08/27 01:13:38;;;;;;;1.33;0.60;;;18.30;63.90;;;;;;5057168;28;20028;-80
2021/08/27 01:16:18;;;;;;;0.98;0.70;;;18.30;63.90;;;;;;5074506;28;20136;-80
2021/08/27 01:19:06;;;;;;;1.98;0.55;;;18.30;64.00;;;;;;5075123;28;20035;-79
2021/08/27 01:21:58;;;;;;;1.00;0.65;;;18.20;63.90;;;;;;5073610;28;20459;-80
2021/08/27 01:24:27;;;;;;;1.98;0.77;;;18.20;64.00;;;;;;5073196;28;20028;-80
2021/08/27 01:26:56;;;;;;;1.25;0.75;;;18.20;64.00;;;;;;5073888;28;20500;-80
2021/08/27 01:29:54;;;;;;;1.75;0.85;;;18.20;64.00;;;;;;5074768;28;20453;-80
2021/08/27 01:32:52;;;;;;;0.50;0.50;;;18.10;64.10;;;;;;5072877;28;20447;-80
2021/08/27 01:35:18;;;;;;;1.55;0.70;;;18.10;64.10;;;;;;5070277;28;20037;-80
2021/08/27 01:37:50;;;;;;;1.00;0.63;;;18.10;64.00;;;;;;5039938;28;20037;-80
2021/08/27 01:40:25;;;;;;;1.20;0.50;;;18.10;64.10;;;;;;5072870;28;20119;-80
2021/08/27 01:42:52;;;;;;;1.02;0.80;;;18.10;64.20;;;;;;5056859;28;20032;-80
2021/08/27 01:45:19;;;;;;;0.60;0.60;;;18.10;64.70;;;;;;5039775;28;20031;-80
2021/08/27 01:47:46;;;;;;;0.63;0.60;;;18.00;64.10;;;;;;5056584;28;20499;-80
2021/08/27 01:50:13;;;;;;;0.82;0.70;;;18.10;64.10;;;;;;5056377;28;20032;-80
2021/08/27 01:52:41;;;;;;;1.13;0.60;;;18.00;64.10;;;;;;5056511;28;20036;-80
2021/08/27 01:55:09;;;;;;;0.75;0.68;;;18.00;64.20;;;;;;5056205;28;20068;-80
2021/08/27 01:57:36;;;;;;;0.90;0.70;;;18.00;64.20;;;;;;5056080;28;20033;-80
2021/08/27 02:00:05;;;;;;;1.17;0.70;;;18.00;64.20;;;;;;5072435;28;20029;-86
2021/08/27 02:02:32;;;;;;;1.05;0.73;;;18.00;64.30;;;;;;5055300;28;20024;-80
2021/08/27 02:05:01;;;;;;;0.68;0.60;;;17.90;64.20;;;;;;5055831;28;20040;-80
2021/08/27 02:07:27;;;;;;;0.63;0.60;;;17.90;64.20;;;;;;5055532;28;20039;-80
2021/08/27 02:09:55;;;;;;;1.88;0.77;;;18.00;64.30;;;;;;5055856;28;20025;-80
2021/08/27 02:12:22;;;;;;;2.10;0.80;;;17.90;64.20;;;;;;5072213;28;20024;-80
2021/08/27 02:14:50;;;;;;;0.60;0.60;;;17.90;64.30;;;;;;5056191;28;20036;-80
2021/08/27 02:17:16;;;;;;;0.90;0.60;;;17.90;64.30;;;;;;5055807;28;20060;-80
2021/08/27 02:19:43;;;;;;;1.13;0.80;;;17.90;64.30;;;;;;5072395;28;20044;-80
2021/08/27 02:22:12;;;;;;;0.60;0.60;;;17.90;64.30;;;;;;5056076;28;20029;-80
2021/08/27 02:24:59;;;;;;;2.10;0.75;;;17.80;64.30;;;;;;5072276;28;20059;-80
2021/08/27 02:27:27;;;;;;;1.67;0.80;;;17.80;64.50;;;;;;5055384;28;20370;-80
2021/08/27 02:29:56;;;;;;;0.68;0.55;;;17.80;64.30;;;;;;5039102;28;20025;-80
2021/08/27 02:32:25;;;;;;;1.73;0.82;;;17.70;64.30;;;;;;5055175;28;20028;-81
2021/08/27 02:34:51;;;;;;;0.70;0.70;;;17.70;64.30;;;;;;5071631;28;20082;-80
2021/08/27 02:37:21;;;;;;;1.20;0.70;;;17.80;64.40;;;;;;5038408;28;20036;-80
2021/08/27 02:39:46;;;;;;;0.95;0.68;;;17.70;64.30;;;;;;5073227;28;20032;-80
2021/08/27 02:42:13;;;;;;;0.57;0.52;;;17.70;64.40;;;;;;5054804;28;20396;-80
2021/08/27 02:44:39;;;;;;;0.70;0.70;;;17.70;64.40;;;;;;5071747;28;20024;-80
2021/08/27 02:47:05;;;;;;;1.13;0.90;;;17.70;64.50;;;;;;5055543;28;20052;-80
2021/08/27 02:49:30;;;;;;;1.65;1.00;;;17.70;64.50;;;;;;5071761;28;20354;-80
2021/08/27 02:52:15;;;;;;;1.15;0.85;;;17.70;64.50;;;;;;5038406;28;20078;-80
2021/08/27 02:54:57;;;;;;;1.00;0.80;;;17.60;64.50;;;;;;5054990;28;20028;-80
2021/08/27 02:57:26;;;;;;;1.23;0.70;;;17.60;64.50;;;;;;5054437;28;20039;-80
2021/08/27 02:59:58;;;;;;;0.88;0.60;;;17.60;64.50;;;;;;5038606;28;20422;-80
2021/08/27 03:02:25;;;;;;;1.42;0.80;;;17.60;64.60;;;;;;5054700;28;20024;-82
2021/08/27 03:05:07;;;;;;;0.95;0.73;;;17.60;64.60;;;;;;5071701;28;20028;-80
2021/08/27 03:07:37;;;;;;;1.30;0.73;;;17.60;64.80;;;;;;5071782;28;20032;-80
2021/08/27 03:10:09;;;;;;;1.55;0.90;;;17.60;64.60;;;;;;5072711;28;20021;-81
2021/08/27 03:12:52;;;;;;;0.80;0.80;;;17.60;64.70;;;;;;5073181;28;20021;-80
2021/08/27 03:15:58;;;;;;;0.65;0.65;;;17.50;64.70;;;;;;5054622;28;20044;-80
2021/08/27 03:18:46;;;;;;;0.93;0.60;;;17.50;64.80;;;;;;5061525;28;20049;-79
2021/08/27 03:21:19;;;;;;;1.27;0.80;;;17.50;64.80;;;;;;5072386;28;20036;-80
2021/08/27 03:23:48;;;;;;;1.05;0.80;;;17.50;64.70;;;;;;5055045;28;20384;-80
2021/08/27 03:26:20;;;;;;;1.27;0.80;;;17.40;64.70;;;;;;5054790;28;20419;-80
2021/08/27 03:28:50;;;;;;;0.75;0.73;;;17.50;64.80;;;;;;5072726;28;20024;-81
2021/08/27 03:31:16;;;;;;;0.82;0.68;;;17.50;64.80;;;;;;5072368;28;20032;-80
2021/08/27 03:33:42;;;;;;;1.23;0.90;;;17.50;64.90;;;;;;5055189;28;20021;-80
2021/08/27 03:36:09;;;;;;;0.90;0.68;;;17.50;65.10;;;;;;5054975;28;20038;-80
2021/08/27 03:38:36;;;;;;;1.38;0.80;;;17.50;65.10;;;;;;5071429;28;20037;-80
2021/08/27 03:41:02;;;;;;;1.60;0.80;;;17.50;65.00;;;;;;5054884;28;20330;-80
2021/08/27 03:43:29;;;;;;;1.27;0.77;;;17.40;64.90;;;;;;5038089;28;20496;-80
2021/08/27 03:45:59;;;;;;;0.90;0.70;;;17.40;65.00;;;;;;5054752;28;20039;-81
2021/08/27 03:48:25;;;;;;;0.60;0.60;;;17.40;65.00;;;;;;5054467;28;20073;-80
2021/08/27 03:50:54;;;;;;;1.15;0.80;;;17.40;65.00;;;;;;5071304;28;20047;-80
2021/08/27 03:53:21;;;;;;;1.48;0.80;;;17.40;65.00;;;;;;5071374;28;20052;-80
2021/08/27 03:55:50;;;;;;;1.30;0.80;;;17.40;65.00;;;;;;5071057;28;20480;-80
2021/08/27 03:58:20;;;;;;;1.02;0.80;;;17.40;65.10;;;;;;5071281;28;20028;-83
2021/08/27 04:00:47;;;;;;;1.30;0.93;;;17.40;65.10;;;;;;5054815;28;20029;-80
2021/08/27 04:03:13;;;;;;;1.30;0.70;;;17.40;65.70;;;;;;5070688;28;20040;-87
2021/08/27 04:05:56;;;;;;;0.95;0.80;;;17.40;65.10;;;;;;5037952;28;20028;-81
2021/08/27 04:08:23;;;;;;;0.75;0.70;;;17.40;65.20;;;;;;5070750;28;20024;-80
2021/08/27 04:10:48;;;;;;;0.60;0.60;;;17.40;65.10;;;;;;5054202;28;20039;-82
2021/08/27 04:13:14;;;;;;;0.70;0.70;;;17.40;65.20;;;;;;5070853;28;20381;-83
2021/08/27 04:15:40;;;;;;;0.60;0.60;;;17.40;65.10;;;;;;5054203;28;20029;-80
2021/08/27 04:18:05;;;;;;;1.35;0.70;;;17.40;65.20;;;;;;5070339;28;20717;-80
2021/08/27 04:20:31;;;;;;;1.08;0.85;;;17.40;65.20;;;;;;5070978;28;20037;-80
2021/08/27 04:22:57;;;;;;;1.23;0.77;;;17.40;65.20;;;;;;5070642;28;20033;-84
2021/08/27 04:25:23;;;;;;;1.42;0.80;;;17.40;65.20;;;;;;5056810;28;20066;-81
2021/08/27 04:27:49;;;;;;;0.65;0.60;;;17.40;65.20;;;;;;5074415;28;20105;-81
2021/08/27 04:30:14;;;;;;;1.60;0.70;;;17.40;65.20;;;;;;5057706;28;20388;-80
2021/08/27 04:32:40;;;;;;;1.30;0.73;;;17.40;65.20;;;;;;5074560;28;20086;-80
2021/08/27 04:35:06;;;;;;;1.35;0.80;;;17.40;65.20;;;;;;5075506;28;20537;-81
2021/08/27 04:37:32;;;;;;;1.13;0.70;;;17.40;65.20;;;;;;5041036;28;20396;-79
2021/08/27 04:39:58;;;;;;;0.60;0.60;;;17.40;65.20;;;;;;5074538;28;20036;-80
2021/08/27 04:42:23;;;;;;;0.70;0.70;;;17.40;65.20;;;;;;5074738;28;20025;-80
2021/08/27 04:44:49;;;;;;;1.17;0.80;;;17.30;65.10;;;;;;5091031;28;20082;-80
2021/08/27 04:47:15;;;;;;;2.15;0.80;;;17.40;65.20;;;;;;5041111;28;20119;-80
2021/08/27 04:49:41;;;;;;;0.70;0.70;;;17.30;65.20;;;;;;5040643;28;20020;-81
2021/08/27 04:52:07;;;;;;;0.70;0.70;;;17.30;65.20;;;;;;5073942;28;20544;-80
2021/08/27 04:54:33;;;;;;;0.90;0.80;;;17.30;65.20;;;;;;5057550;28;20488;-80
2021/08/27 04:56:59;;;;;;;1.58;0.63;;;17.30;65.20;;;;;;5073775;28;20036;-80
2021/08/27 04:59:24;;;;;;;0.60;0.60;;;17.30;65.30;;;;;;5074937;28;20473;-80
2021/08/27 05:01:50;;;;;;;1.88;0.80;;;17.30;65.20;;;;;;5057669;28;20074;-80
2021/08/27 05:04:16;;;;;;;2.03;0.88;;;17.30;65.20;;;;;;5057142;28;20033;-78
2021/08/27 05:06:42;;;;;;;1.38;0.73;;;17.30;65.30;;;;;;5056651;28;20039;-80
2021/08/27 05:09:08;;;;;;;0.70;0.70;;;17.30;65.40;;;;;;5056966;28;20039;-80
2021/08/27 05:11:33;;;;;;;1.35;0.73;;;17.30;65.30;;;;;;5073420;28;20366;-80
2021/08/27 05:13:59;;;;;;;1.30;0.82;;;17.30;65.30;;;;;;5073765;28;20100;-81
2021/08/27 05:16:25;;;;;;;0.88;0.60;;;17.30;65.30;;;;;;5056269;28;20045;-81
2021/08/27 05:18:51;;;;;;;1.17;0.82;;;17.30;65.40;;;;;;5073810;28;20078;-80
2021/08/27 05:21:16;;;;;;;0.98;0.70;;;17.30;65.40;;;;;;5056628;28;20555;-80
2021/08/27 05:23:42;;;;;;;1.55;0.90;;;17.30;65.40;;;;;;5073363;28;20036;-80
2021/08/27 05:26:08;;;;;;;2.10;0.90;;;17.30;65.40;;;;;;5056648;28;20057;-80
2021/08/27 05:28:34;;;;;;;1.05;0.88;;;17.30;65.40;;;;;;5073054;28;20387;-80
2021/08/27 05:31:00;;;;;;;1.33;0.95;;;17.30;65.40;;;;;;5039918;28;20123;-80
2021/08/27 05:33:26;;;;;;;1.10;0.80;;;17.30;65.50;;;;;;5074370;28;20461;-81
2021/08/27 05:35:51;;;;;;;1.23;0.80;;;17.20;65.40;;;;;;5039861;28;20020;-80
2021/08/27 05:38:17;;;;;;;1.00;0.80;;;17.30;65.50;;;;;;5073008;28;20545;-80
2021/08/27 05:40:43;;;;;;;0.65;0.65;;;17.20;65.50;;;;;;5056460;28;20032;-80
2021/08/27 05:43:09;;;;;;;1.20;0.75;;;17.20;65.50;;;;;;5056554;28;20024;-81
2021/08/27 05:45:34;;;;;;;0.70;0.70;;;17.30;65.50;;;;;;5039536;28;20376;-80
2021/08/27 05:48:00;;;;;;;0.80;0.70;;;17.20;65.50;;;;;;5040022;28;20127;-80
2021/08/27 05:50:26;;;;;;;0.70;0.70;;;17.20;65.50;;;;;;5056366;28;20033;-80
2021/08/27 05:52:52;;;;;;;0.82;0.73;;;17.20;65.60;;;;;;5056198;28;20028;-80
2021/08/27 05:55:19;;;;;;;1.23;0.90;;;17.30;65.60;;;;;;5073077;28;20115;-80
2021/08/27 05:57:44;;;;;;;0.73;0.70;;;17.30;65.70;;;;;;5055681;28;20048;-81
2021/08/27 06:00:11;;;;;;;2.00;0.82;;;17.30;65.70;;;;;;5072639;28;20032;-81
2021/08/27 06:02:38;;;;;;;0.98;0.80;;;17.30;65.80;;;;;;5071951;28;20060;-81
2021/08/27 06:05:04;;;;;;;1.15;0.90;;;17.30;65.70;;;;;;5073649;28;20024;-80
2021/08/27 06:07:30;;;;;;;0.68;0.68;;;17.30;65.80;;;;;;5073442;28;20545;-80
2021/08/27 06:09:55;;;;;;;0.70;0.70;;;17.30;65.70;;;;;;5039211;28;20029;-80
2021/08/27 06:12:21;;;;;;;0.88;0.80;;;17.30;65.80;;;;;;5072596;28;20032;-80
2021/08/27 06:14:47;;;;;;;1.13;0.70;;;17.30;65.80;;;;;;5056113;28;20112;-81
2021/08/27 06:17:13;;;;;;;1.30;0.73;;;17.30;65.80;;;;;;5039061;28;20049;-81
2021/08/27 06:19:38;;;;;;;1.00;0.68;;;17.30;65.80;;;;;;5038998;28;20029;-80
2021/08/27 06:22:04;;;;;;;2.05;0.85;;;17.30;65.80;;;;;;5072548;28;20037;-80
2021/08/27 06:24:30;;;;;;;1.15;0.70;;;17.30;65.90;;;;;;5071968;28;20565;-80
2021/08/27 06:26:56;;;;;;;1.20;0.70;;;17.40;65.90;;;;;;5055687;28;20082;-80
2021/08/27 06:29:22;;;;;;;1.10;0.70;;;17.40;66.00;;;;;;5055669;28;20037;-80
2021/08/27 06:31:48;;;;;;;1.55;0.80;;;17.40;66.00;;;;;;5073472;28;20465;-80
2021/08/27 06:34:14;;;;;;;1.77;0.98;;;17.40;66.00;;;;;;5055368;28;20032;-81
2021/08/27 06:36:40;;;;;;;1.00;0.80;;;17.40;66.10;;;;;;5055245;28;20394;-81
2021/08/27 06:39:06;;;;;;;2.35;1.17;;;17.40;66.20;;;;;;5055016;28;20111;-80
2021/08/27 06:41:32;;;;;;;2.05;0.80;;;17.40;66.10;;;;;;5037940;28;20040;-81
2021/08/27 06:43:58;;;;;;;0.65;0.63;;;17.40;66.10;;;;;;5037656;28;20033;-80
2021/08/27 06:46:25;;;;;;;1.20;0.90;;;17.40;66.10;;;;;;5054685;28;20469;-80
2021/08/27 06:48:51;;;;;;;1.10;0.68;;;17.50;66.20;;;;;;5072814;28;20074;-80
2021/08/27 06:51:17;;;;;;;0.82;0.70;;;17.50;66.20;;;;;;5055312;28;20484;-80
2021/08/27 06:53:44;;;;;;;0.98;0.88;;;17.50;66.30;;;;;;5072513;28;20121;-80
2021/08/27 06:56:10;;;;;;;0.70;0.70;;;17.50;66.30;;;;;;5038568;28;20075;-79
2021/08/27 06:58:35;;;;;;;0.95;0.80;;;17.50;66.30;;;;;;5071264;28;20487;-80
2021/08/27 07:01:02;;;;;;;1.10;0.80;;;17.50;66.30;;;;;;5071748;28;20040;-79
2021/08/27 07:03:28;;;;;;;1.17;0.80;;;17.50;66.40;;;;;;5071534;28;20078;-80
2021/08/27 07:05:54;;;;;;;1.77;0.90;;;17.60;66.40;;;;;;5071280;28;20036;-79
2021/08/27 07:08:20;;;;;;;0.70;0.70;;;17.60;66.40;;;;;;5088478;28;20033;-79
2021/08/27 07:10:46;;;;;;;1.90;0.80;;;17.60;66.40;;;;;;5054912;28;20036;-80
2021/08/27 07:13:13;;;;;;;0.50;0.50;;;17.60;66.40;;;;;;5071968;28;20035;-79
2021/08/27 07:15:39;;;;;;;1.48;0.80;;;17.60;66.40;;;;;;5071540;28;20033;-79
2021/08/27 07:18:05;;;;;;;1.05;0.70;;;17.70;66.50;;;;;;5054360;28;20131;-80
2021/08/27 07:20:32;;;;;;;1.15;0.77;;;17.70;66.50;;;;;;5055050;28;20029;-79
2021/08/27 07:22:57;;;;;;;1.20;0.73;;;17.70;66.50;;;;;;5054658;28;20028;-79
2021/08/27 07:25:24;;;;;;;0.85;0.70;;;17.70;66.50;;;;;;5054887;28;20408;-80
2021/08/27 07:27:50;;;;;;;0.73;0.70;;;17.80;66.50;;;;;;5071183;28;20037;-79
2021/08/27 07:30:17;;;;;;;1.80;0.90;;;17.80;66.50;;;;;;5071689;28;20078;-80
2021/08/27 07:32:43;;;;;;;1.23;0.80;;;17.80;66.50;;;;;;5054364;28;20032;-79
2021/08/27 07:35:10;;;;;;;1.05;0.85;;;17.90;66.50;;;;;;5038285;28;20028;-79
2021/08/27 07:37:40;;;;;;;1.67;0.80;;;17.90;66.50;;;;;;5054535;28;20039;-84
2021/08/27 07:40:08;;;;;;;1.52;0.77;;;17.90;66.60;;;;;;5054903;28;20036;-79
2021/08/27 07:42:34;;;;;;;1.23;0.80;;;17.90;66.60;;;;;;5071529;28;20029;-80
2021/08/27 07:45:00;;;;;;;1.67;0.88;;;18.00;66.60;;;;;;5071295;28;20039;-80
2021/08/27 07:47:26;;;;;;;0.70;0.70;;;18.00;66.60;;;;;;5071146;28;20336;-80
2021/08/27 07:49:52;;;;;;;1.75;0.90;;;18.00;66.60;;;;;;5071401;28;20029;-78
2021/08/27 07:52:18;;;;;;;0.70;0.70;;;18.10;66.70;;;;;;5038234;28;20033;-80
2021/08/27 07:54:44;;;;;;;0.55;0.55;;;18.10;67.30;;;;;;5054241;28;20040;-80
2021/08/27 07:57:10;;;;;;;1.10;0.80;;;18.10;66.70;;;;;;5038113;28;20044;-79
2021/08/27 07:59:35;;;;;;;1.27;0.70;;;18.10;66.70;;;;;;5040022;28;20473;-80
2021/08/27 08:02:01;;;;;;;1.17;0.82;;;18.20;66.60;;;;;;5076133;28;20078;-79
2021/08/27 08:04:27;;;;;;;1.67;0.80;;;18.20;66.60;;;;;;5074963;28;20025;-79
2021/08/27 08:06:53;;;;;;;1.50;0.88;;;18.20;66.60;;;;;;5076001;28;20052;-79
2021/08/27 08:09:19;;;;;;;1.95;0.88;;;18.30;66.70;;;;;;5058390;28;20127;-79
2021/08/27 08:11:44;;;;;;;1.17;0.70;;;18.30;66.60;;;;;;5041380;28;20171;-80
2021/08/27 08:14:10;;;;;;;1.00;0.90;;;18.40;66.60;;;;;;5058061;28;20037;-81
2021/08/27 08:16:36;;;;;;;1.02;0.88;;;18.40;66.60;;;;;;5041291;28;20045;-78
2021/08/27 08:19:02;;;;;;;1.25;0.82;;;18.40;66.70;;;;;;5057644;28;20489;-80
2021/08/27 08:21:28;;;;;;;1.15;0.80;;;18.40;66.70;;;;;;5074296;28;20033;-81
2021/08/27 08:23:55;;;;;;;1.48;1.00;;;18.50;66.70;;;;;;5057211;28;20021;-79
2021/08/27 08:26:22;;;;;;;1.90;1.10;;;18.50;66.70;;;;;;5074490;28;20021;-79
2021/08/27 08:28:49;;;;;;;1.40;0.90;;;18.60;66.80;;;;;;5074418;28;20439;-79
2021/08/27 08:31:22;;;;;;;1.05;0.80;;;18.60;66.80;;;;;;5058002;28;20021;-79
2021/08/27 08:33:50;;;;;;;1.27;0.90;;;18.60;66.80;;;;;;5074257;28;20032;-79
2021/08/27 08:36:16;;;;;;;1.30;0.90;;;18.70;66.80;;;;;;5074439;28;20087;-79
2021/08/27 08:38:43;;;;;;;1.85;1.08;;;18.70;66.90;;;;;;5057511;28;20040;-84
2021/08/27 08:41:09;;;;;;;1.77;1.00;;;18.70;66.70;;;;;;5074335;28;20028;-80
2021/08/27 08:43:35;;;;;;;1.38;1.00;;;18.80;66.70;;;;;;5057981;28;20032;-81
2021/08/27 08:46:01;;;;;;;1.67;1.00;;;18.80;66.60;;;;;;5090649;28;20789;-80
2021/08/27 08:48:28;;;;;;;1.13;0.98;;;18.80;66.50;;;;;;5073941;28;20520;-79
2021/08/27 08:50:55;;;;;;;1.55;0.90;;;18.90;66.60;;;;;;5057290;28;20040;-79
2021/08/27 08:53:25;;;;;;;1.45;0.70;;;18.90;66.60;;;;;;5073862;28;20033;-79
2021/08/27 08:55:51;;;;;;;1.63;0.90;;;19.00;66.60;;;;;;5057139;28;20028;-80
2021/08/27 08:58:18;;;;;;;1.85;0.90;;;19.00;66.50;;;;;;5073911;28;20526;-80
2021/08/27 09:00:45;;;;;;;2.10;0.98;;;19.10;66.50;;;;;;5074400;28;20056;-83
2021/08/27 09:03:11;;;;;;;0.93;0.80;;;19.10;66.40;;;;;;5040122;28;20038;-81
2021/08/27 09:05:41;;;;;;;1.52;0.90;;;19.20;66.40;;;;;;5073649;28;20025;-81
2021/08/27 09:08:07;;;;;;;1.20;0.80;;;19.30;66.30;;;;;;5072926;28;20089;-80
2021/08/27 09:10:44;;;;;;;2.05;0.82;;;19.30;66.10;;;;;;5056631;28;20032;-80
2021/08/27 09:13:10;;;;;;;1.58;0.80;;;19.40;66.20;;;;;;5073642;28;20050;-81
2021/08/27 09:15:36;;;;;;;0.75;0.75;;;19.40;66.00;;;;;;5073222;28;20029;-80
2021/08/27 09:18:09;;;;;;;2.22;1.35;;;19.50;66.00;;;;;;5074265;28;20040;-81
2021/08/27 09:20:35;;;;;;;1.15;0.77;;;19.50;66.00;;;;;;5073384;28;20082;-80
2021/08/27 09:23:04;;;;;;;2.45;1.42;;;19.60;65.80;;;;;;5039686;28;20468;-81
2021/08/27 09:25:32;;;;;;;1.33;0.90;;;19.60;65.90;;;;;;5056644;28;20085;-81
2021/08/27 09:28:08;;;;;;;1.10;0.85;;;19.70;65.90;;;;;;5074451;28;20127;-80
2021/08/27 09:30:56;;;;;;;4.38;1.13;;;19.80;65.90;;;;;;5056334;28;20029;-80
2021/08/27 09:33:35;;;;;;;0.95;0.70;;;19.80;66.00;;;;;;5056272;28;20029;-80
2021/08/27 09:36:06;;;;;;;2.08;0.90;;;19.90;65.80;;;;;;5072925;28;20032;-81
2021/08/27 09:38:38;;;;;;;1.58;0.90;;;19.90;65.80;;;;;;5073122;28;20503;-81
2021/08/27 09:41:06;;;;;;;1.55;0.75;;;20.00;65.80;;;;;;5073077;28;20035;-82
2021/08/27 09:43:44;;;;;;;2.17;0.98;;;20.00;65.70;;;;;;5072936;28;20025;-81
2021/08/27 09:46:42;;;;;;;2.63;1.00;;;20.10;65.80;;;;;;5073000;28;20024;-81
2021/08/27 09:49:26;;;;;;;1.98;1.00;;;20.20;65.80;;;;;;5074302;28;20035;-81
2021/08/27 09:51:53;;;;;;;2.15;1.00;;;20.20;65.70;;;;;;5073870;28;20024;-81
2021/08/27 09:54:30;;;;;;;1.52;0.90;;;20.30;65.60;;;;;;5072827;28;20027;-82
2021/08/27 09:56:58;;;;;;;3.33;1.25;;;20.30;65.70;;;;;;5055893;28;20473;-81
2021/08/27 09:59:47;;;;;;;0.93;0.80;;;20.40;65.60;;;;;;5056346;28;20119;-81
2021/08/27 10:02:15;;;;;;;1.83;1.05;;;20.40;65.70;;;;;;5073265;28;20357;-81
2021/08/27 10:04:57;;;;;;;1.88;0.90;;;20.50;65.60;;;;;;5072857;28;20074;-81
2021/08/27 10:07:28;;;;;;;2.13;1.00;;;20.50;65.70;;;;;;5072434;28;20034;-82
2021/08/27 10:09:54;;;;;;;2.17;0.90;;;20.50;65.50;;;;;;5055709;28;20393;-82
2021/08/27 10:12:20;;;;;;;1.75;1.10;;;20.60;65.40;;;;;;5056005;28;20033;-81
2021/08/27 10:14:46;;;;;;;1.85;1.00;;;20.70;65.50;;;;;;5056034;28;20477;-81
2021/08/27 10:17:14;;;;;;;1.05;0.68;;;20.70;65.50;;;;;;5071906;28;20060;-82
2021/08/27 10:19:39;;;;;;;1.20;0.80;;;20.80;65.50;;;;;;5039526;28;20423;-81
2021/08/27 10:22:05;;;;;;;2.33;1.05;;;20.90;65.50;;;;;;5073242;28;20043;-83
2021/08/27 10:24:32;;;;;;;2.33;0.82;;;20.90;65.50;;;;;;5089349;28;20137;-81
2021/08/27 10:26:59;;;;;;;1.08;0.75;;;20.90;65.50;;;;;;5073080;28;20394;-80
2021/08/27 10:29:25;;;;;;;2.28;1.10;;;21.00;65.50;;;;;;5055799;28;20025;-80
2021/08/27 10:31:51;;;;;;;1.50;0.93;;;21.00;65.50;;;;;;5055721;28;20032;-79
2021/08/27 10:34:37;;;;;;;2.22;1.20;;;21.10;65.50;;;;;;5055706;28;20039;-80
2021/08/27 10:37:03;;;;;;;2.20;1.10;;;21.10;65.50;;;;;;5054997;28;20067;-79
2021/08/27 10:39:41;;;;;;;2.10;1.05;;;21.10;65.40;;;;;;5055272;28;20068;-79
2021/08/27 10:42:08;;;;;;;1.83;0.90;;;21.10;65.50;;;;;;5071687;28;20033;-79
2021/08/27 10:44:51;;;;;;;2.92;0.95;;;21.20;66.10;;;;;;5038514;28;20032;-80
2021/08/27 10:47:18;;;;;;;1.42;0.93;;;21.20;65.60;;;;;;5055092;28;20039;-79
2021/08/27 10:49:46;;;;;;;1.80;0.85;;;21.20;65.40;;;;;;5038941;28;20032;-80
2021/08/27 10:52:30;;;;;;;1.40;0.95;;;21.20;65.40;;;;;;5071877;28;20025;-80
2021/08/27 10:55:14;;;;;;;1.77;0.90;;;21.20;65.50;;;;;;5072891;28;20380;-82
2021/08/27 10:57:55;;;;;;;1.23;0.90;;;21.20;65.60;;;;;;5055197;28;20028;-81
2021/08/27 11:00:39;;;;;;;1.67;1.02;;;21.20;65.70;;;;;;5071624;28;20060;-80
2021/08/27 11:03:06;;;;;;;0.93;0.70;;;21.20;65.90;;;;;;5071315;28;20093;-80
2021/08/27 11:05:46;;;;;;;1.35;0.80;;;21.20;65.80;;;;;;5038188;28;20027;-79
2021/08/27 11:08:15;;;;;;;1.75;0.90;;;21.20;66.00;;;;;;5071572;28;20063;-80
2021/08/27 11:11:02;;;;;;;2.00;0.90;;;21.20;65.90;;;;;;5071088;28;20075;-79
2021/08/27 11:13:35;;;;;;;1.45;0.80;;;21.30;65.90;;;;;;5063727;28;20093;-80
2021/08/27 11:16:21;;;;;;;1.15;0.90;;;21.20;65.90;;;;;;5054739;28;20028;-80
2021/08/27 11:18:48;;;;;;;1.50;0.90;;;21.30;66.20;;;;;;5054787;28;20051;-80
2021/08/27 11:21:34;;;;;;;1.42;0.70;;;21.20;66.00;;;;;;5071068;28;20021;-80
2021/08/27 11:24:18;;;;;;;1.83;0.90;;;21.30;66.20;;;;;;5071473;28;20035;-81
2021/08/27 11:27:02;;;;;;;1.40;0.88;;;21.30;66.30;;;;;;5071394;28;20029;-80
2021/08/27 11:29:33;;;;;;;1.40;0.95;;;21.20;66.20;;;;;;5054981;28;20093;-80
2021/08/27 11:32:31;;;;;;;1.10;0.82;;;21.30;66.30;;;;;;5072945;28;20491;-81
2021/08/27 11:35:00;;;;;;;0.80;0.80;;;21.20;66.30;;;;;;5059927;28;20453;-80
2021/08/27 11:37:31;;;;;;;0.60;0.55;;;21.30;66.30;;;;;;5075496;28;20025;-82
2021/08/27 11:39:57;;;;;;;2.47;0.88;;;21.30;66.50;;;;;;5075198;28;20094;-80
2021/08/27 11:42:23;;;;;;;0.80;0.80;;;21.30;66.50;;;;;;5058519;28;20109;-80
2021/08/27 11:45:10;;;;;;;1.45;0.68;;;21.30;66.60;;;;;;5058834;28;20052;-81
2021/08/27 11:47:42;;;;;;;1.15;0.70;;;21.30;66.80;;;;;;5075506;28;20025;-80
2021/08/27 11:50:36;;;;;;;0.82;0.70;;;21.30;66.70;;;;;;5074838;28;20050;-80
2021/08/27 11:53:03;;;;;;;1.50;0.90;;;21.30;66.80;;;;;;5058486;28;20119;-80
2021/08/27 11:55:29;;;;;;;2.15;1.00;;;21.30;66.70;;;;;;5041752;28;20053;-83
2021/08/27 11:57:57;;;;;;;1.30;0.80;;;21.40;66.80;;;;;;5041258;28;20039;-80
2021/08/27 12:00:33;;;;;;;1.85;1.00;;;21.40;66.70;;;;;;5057893;28;20032;-81
2021/08/27 12:02:59;;;;;;;1.85;0.90;;;21.30;66.60;;;;;;5074665;28;20546;-81
2021/08/27 12:05:26;;;;;;;2.00;0.98;;;21.40;66.60;;;;;;5058167;28;20036;-81
2021/08/27 12:08:01;;;;;;;2.50;1.00;;;21.40;66.60;;;;;;5058013;28;20377;-80
2021/08/27 12:10:31;;;;;;;1.30;0.93;;;21.40;66.60;;;;;;5074535;28;20024;-80
2021/08/27 12:12:57;;;;;;;2.63;1.00;;;21.40;66.50;;;;;;5074825;28;20041;-81
2021/08/27 12:15:29;;;;;;;1.50;0.88;;;21.40;66.50;;;;;;5074226;28;20021;-81
2021/08/27 12:17:57;;;;;;;1.48;0.90;;;21.40;66.60;;;;;;5075541;28;20542;-80
2021/08/27 12:20:32;;;;;;;2.88;1.30;;;21.40;66.60;;;;;;5075531;28;20032;-81
2021/08/27 12:23:09;;;;;;;2.15;1.13;;;21.50;66.60;;;;;;5076114;28;20028;-81
2021/08/27 12:25:42;;;;;;;1.70;0.90;;;21.40;66.50;;;;;;5076036;28;20052;-80
2021/08/27 12:28:10;;;;;;;2.63;0.90;;;21.40;66.50;;;;;;5059065;28;20488;-81
2021/08/27 12:30:43;;;;;;;2.58;1.15;;;21.50;66.50;;;;;;5057580;28;20016;-80
2021/08/27 12:33:10;;;;;;;2.15;0.80;;;21.50;66.50;;;;;;5057241;28;20037;-81
2021/08/27 12:35:37;;;;;;;1.33;0.80;;;21.50;66.40;;;;;;5057501;28;20033;-81
2021/08/27 12:38:04;;;;;;;2.33;1.05;;;21.50;66.40;;;;;;5073914;28;20032;-81
2021/08/27 12:40:32;;;;;;;4.03;1.13;;;21.50;66.40;;;;;;5057221;28;20035;-81
2021/08/27 12:43:07;;;;;;;3.05;1.00;;;21.50;66.40;;;;;;5074851;28;20146;-81
2021/08/27 12:45:50;;;;;;;;;;;21.50;67.00;;;;;;5056812;28;20101;-80
2021/08/27 12:48:21;;;;;;;2.03;0.93;;;21.50;66.10;;;;;;5073495;28;19919;-80
2021/08/27 12:50:53;;;;;;;1.40;0.93;;;21.60;66.10;;;;;;5073984;28;20037;-80
2021/08/27 12:53:37;;;;;;;2.40;1.00;;;21.50;66.10;;;;;;5057023;28;20529;-80
2021/08/27 12:56:22;;;;;;;1.50;0.80;;;21.60;66.20;;;;;;5075208;28;20461;-80
2021/08/27 12:58:50;;;;;;;1.95;1.00;;;21.60;66.20;;;;;;5075065;28;20040;-80